Terminal Aerodrome Forecast
Issued by NWS

Home | Current Version | Previous Version | Text Only | Print | Product List | Glossary On
Versions: 1 2 3 4 5 6 7 8 9 10 11 12
879
FTUS44 KSJT 212325
TAFBBD
TAF
KBBD 212325Z 2200/2224 24016G22KT P6SM OVC120
     FM220600 28024G33KT P6SM SKC
     FM221800 30019G27KT P6SM FEW200
     FM222300 31010KT P6SM SKC
      AMD NOT SKED=

USA.gov is the U.S. government's official web portal to all federal, state and local government web resources and services.